Time;durP1;ratioP1;P1;durP2;ratioP2;P2;SDS_P1;SDS_P2;PMS_P1;PMS_P2;Temp;Humidity;BMP_temperature;BMP_pressure;BME280_temperature;BME280_humidity;BME280_pressure;Samples;Min_cycle;Max_cycle;Signal;HPM_P1;HPM_P2
2022/11/26 00:02:22;;;;;;;18.83;4.47;;;5.60;99.90;;;;;;5112433;28;20039;-65
2022/11/26 00:04:48;;;;;;;16.67;3.97;;;5.60;99.90;;;;;;5112388;28;20119;-65
2022/11/26 00:07:21;;;;;;;16.02;4.65;;;5.40;99.90;;;;;;5112476;28;20038;-65
2022/11/26 00:09:48;;;;;;;15.63;4.22;;;5.40;99.90;;;;;;5112318;28;20040;-65
2022/11/26 00:12:19;;;;;;;13.82;4.43;;;5.50;99.90;;;;;;5112286;28;20473;-65
2022/11/26 00:14:46;;;;;;;15.90;4.30;;;5.40;99.90;;;;;;5112256;28;20109;-65
2022/11/26 00:17:12;;;;;;;13.13;3.53;;;5.40;99.90;;;;;;5112396;28;20039;-65
2022/11/26 00:19:39;;;;;;;14.68;4.72;;;5.40;99.90;;;;;;5112432;28;20083;-65
2022/11/26 00:22:13;;;;;;;11.23;3.92;;;5.50;99.90;;;;;;5112144;28;20078;-66
2022/11/26 00:24:39;;;;;;;17.13;4.28;;;5.50;99.90;;;;;;5112205;28;20028;-65
2022/11/26 00:27:07;;;;;;;15.40;5.30;;;5.40;99.90;;;;;;5111994;28;20488;-65
2022/11/26 00:29:33;;;;;;;12.48;4.00;;;5.40;99.90;;;;;;5112131;28;20059;-65
2022/11/26 00:31:59;;;;;;;18.80;4.30;;;5.40;99.90;;;;;;5112141;28;20032;-65
2022/11/26 00:34:24;;;;;;;15.70;4.10;;;5.40;99.90;;;;;;5111132;28;20046;-65
2022/11/26 00:36:50;;;;;;;11.73;4.10;;;5.40;99.90;;;;;;5112016;28;20044;-66
2022/11/26 00:39:21;;;;;;;12.07;4.28;;;5.30;99.90;;;;;;5111936;28;20039;-65
2022/11/26 00:41:49;;;;;;;16.20;4.68;;;5.40;99.90;;;;;;5111880;28;20036;-65
2022/11/26 00:44:20;;;;;;;12.25;5.03;;;5.40;99.90;;;;;;5112023;28;20040;-65
2022/11/26 00:46:46;;;;;;;24.63;5.28;;;5.50;99.90;;;;;;5112442;28;20051;-65
2022/11/26 00:49:11;;;;;;;15.65;4.65;;;5.50;99.90;;;;;;5116039;28;20123;-65
2022/11/26 00:51:38;;;;;;;17.50;5.22;;;5.50;99.90;;;;;;5116026;28;20197;-66
2022/11/26 00:54:05;;;;;;;17.13;5.03;;;5.40;99.90;;;;;;5115727;28;20084;-66
2022/11/26 00:56:31;;;;;;;14.23;4.63;;;5.50;99.90;;;;;;5115642;28;20071;-66
2022/11/26 00:58:56;;;;;;;21.08;5.00;;;5.50;99.90;;;;;;5115664;28;20120;-66
2022/11/26 01:01:26;;;;;;;11.52;4.47;;;5.30;99.90;;;;;;5115879;28;20157;-66
2022/11/26 01:03:52;;;;;;;20.95;5.15;;;5.40;99.90;;;;;;5115552;28;20161;-65
2022/11/26 01:06:20;;;;;;;16.05;5.05;;;5.40;99.90;;;;;;5115538;28;20050;-65
2022/11/26 01:08:46;;;;;;;11.85;4.43;;;5.30;99.90;;;;;;5114253;28;20071;-65
2022/11/26 01:11:16;;;;;;;14.98;4.95;;;5.30;99.90;;;;;;5115552;28;20514;-66
2022/11/26 01:13:43;;;;;;;16.20;5.63;;;5.20;99.90;;;;;;5115708;28;20134;-66
2022/11/26 01:16:28;;;;;;;19.83;5.47;;;5.30;99.90;;;;;;5115564;28;20043;-65
2022/11/26 01:18:57;;;;;;;14.65;5.38;;;5.30;99.90;;;;;;5115184;28;20483;-65
2022/11/26 01:21:25;;;;;;;13.98;4.75;;;5.30;99.90;;;;;;5115437;28;20796;-65
2022/11/26 01:23:50;;;;;;;17.10;5.63;;;5.30;99.90;;;;;;5115343;28;20051;-66
2022/11/26 01:26:22;;;;;;;15.88;4.75;;;5.30;99.90;;;;;;5115629;28;20028;-66
2022/11/26 01:28:48;;;;;;;12.93;5.03;;;5.20;99.90;;;;;;5114807;28;20177;-66
2022/11/26 01:31:20;;;;;;;13.90;5.10;;;5.30;99.90;;;;;;5114983;28;20452;-65
2022/11/26 01:33:46;;;;;;;15.73;5.40;;;5.20;99.90;;;;;;5115082;28;20043;-66
2022/11/26 01:36:26;;;;;;;20.10;6.05;;;5.20;99.90;;;;;;5115166;28;20531;-66
2022/11/26 01:38:56;;;;;;;25.67;5.72;;;5.30;99.90;;;;;;5115373;28;20043;-66
2022/11/26 01:41:28;;;;;;;14.35;5.63;;;5.20;99.90;;;;;;5114984;28;20040;-65
2022/11/26 01:43:56;;;;;;;16.95;5.32;;;5.30;99.90;;;;;;5113445;28;20050;-66
2022/11/26 01:46:24;;;;;;;17.33;5.88;;;5.10;99.90;;;;;;5114564;28;20486;-66
2022/11/26 01:48:50;;;;;;;16.35;5.53;;;5.30;99.90;;;;;;5113783;28;20044;-66
2022/11/26 01:51:25;;;;;;;18.10;5.97;;;5.20;99.90;;;;;;5114823;28;20401;-66
2022/11/26 01:53:54;;;;;;;17.38;5.43;;;5.20;99.90;;;;;;5114681;28;20043;-66
2022/11/26 01:56:30;;;;;;;;;;;5.10;99.90;;;;;;5115078;28;20052;-66
2022/11/26 01:59:03;;;;;;;14.88;4.80;;;5.10;99.90;;;;;;5113558;28;19960;-66
2022/11/26 02:01:29;;;;;;;16.70;4.65;;;5.00;99.90;;;;;;5114649;28;20131;-66
2022/11/26 02:04:09;;;;;;;19.23;6.05;;;4.90;99.90;;;;;;5114395;28;20099;-66
2022/11/26 02:06:35;;;;;;;;;;;4.80;99.90;;;;;;5115050;28;20047;-66
2022/11/26 02:09:03;;;;;;;15.05;4.88;;;4.90;99.90;;;;;;5114410;28;19916;-66
2022/11/26 02:11:29;;;;;;;17.20;5.13;;;4.80;99.90;;;;;;5114411;28;20032;-66
2022/11/26 02:14:00;;;;;;;15.80;5.47;;;4.90;99.90;;;;;;5114219;28;20160;-66
2022/11/26 02:17:02;;;;;;;19.38;5.35;;;4.90;99.90;;;;;;5114182;28;20117;-66
2022/11/26 02:19:52;;;;;;;18.77;5.85;;;4.90;99.90;;;;;;5114029;28;20036;-66
2022/11/26 02:22:33;;;;;;;17.75;6.05;;;4.90;99.90;;;;;;5114182;28;20154;-66
2022/11/26 02:25:26;;;;;;;19.90;6.32;;;4.80;99.90;;;;;;5114004;28;20062;-66
2022/11/26 02:28:29;;;;;;;15.15;5.65;;;4.90;99.90;;;;;;5113958;28;20036;-66
2022/11/26 02:31:26;;;;;;;15.10;5.55;;;4.90;99.90;;;;;;5114035;28;20050;-66
2022/11/26 02:34:14;;;;;;;16.10;5.88;;;4.90;99.90;;;;;;5050904;28;20584;-66
2022/11/26 02:36:50;;;;;;;22.17;7.40;;;5.00;99.90;;;;;;5051042;28;20079;-66
2022/11/26 02:39:19;;;;;;;14.57;6.22;;;4.80;99.90;;;;;;5050874;28;20049;-66
2022/11/26 02:41:54;;;;;;;18.52;5.57;;;5.00;99.90;;;;;;5050937;28;20155;-66
2022/11/26 02:44:23;;;;;;;16.15;5.40;;;4.80;99.90;;;;;;5051066;28;20053;-66
2022/11/26 02:46:55;;;;;;;15.57;5.85;;;4.70;99.90;;;;;;5034595;28;20045;-66
2022/11/26 02:49:21;;;;;;;16.33;5.18;;;4.70;99.90;;;;;;5050891;28;20048;-66
2022/11/26 02:51:53;;;;;;;11.98;5.30;;;4.60;99.90;;;;;;5050908;28;20045;-66
2022/11/26 02:54:20;;;;;;;16.45;5.57;;;4.60;99.90;;;;;;5050884;28;20052;-66
2022/11/26 02:56:48;;;;;;;18.25;6.35;;;4.60;99.90;;;;;;5050528;28;20044;-66
2022/11/26 02:59:14;;;;;;;9.75;4.95;;;4.60;99.90;;;;;;5050544;28;20049;-66
2022/11/26 03:02:04;;;;;;;19.05;5.70;;;4.60;99.90;;;;;;5050421;28;20048;-66
2022/11/26 03:04:34;;;;;;;13.82;5.88;;;4.50;99.90;;;;;;5050499;28;20052;-66
2022/11/26 03:07:03;;;;;;;17.83;5.53;;;4.60;99.90;;;;;;5050540;28;20037;-66
2022/11/26 03:09:40;;;;;;;19.00;6.15;;;4.40;99.90;;;;;;5033788;28;20531;-66
2022/11/26 03:12:06;;;;;;;22.15;6.18;;;4.40;99.90;;;;;;5113204;28;20118;-66
2022/11/26 03:14:31;;;;;;;22.75;6.72;;;4.50;99.90;;;;;;5113074;28;20047;-66
2022/11/26 03:16:57;;;;;;;20.27;6.35;;;4.50;99.90;;;;;;5113189;28;20483;-67
2022/11/26 03:19:23;;;;;;;17.92;7.00;;;4.70;99.90;;;;;;5113104;28;20390;-66
2022/11/26 03:21:48;;;;;;;17.92;6.05;;;4.60;99.90;;;;;;5112875;28;20389;-66
2022/11/26 03:24:14;;;;;;;22.60;6.75;;;4.50;99.90;;;;;;5113055;28;20035;-66
2022/11/26 03:26:39;;;;;;;15.10;5.75;;;4.80;99.90;;;;;;5111965;28;20035;-67
2022/11/26 03:29:05;;;;;;;14.98;5.72;;;4.50;99.90;;;;;;5111654;28;20059;-66
2022/11/26 03:31:31;;;;;;;16.63;5.55;;;4.40;99.90;;;;;;5112883;28;20059;-66
2022/11/26 03:33:56;;;;;;;15.02;5.43;;;4.50;99.90;;;;;;5112871;28;20035;-66
2022/11/26 03:36:22;;;;;;;14.77;5.95;;;4.40;99.90;;;;;;5112770;28;20035;-66
2022/11/26 03:38:47;;;;;;;17.75;7.38;;;4.40;99.90;;;;;;5112737;28;20040;-66
2022/11/26 03:41:13;;;;;;;14.23;5.65;;;4.50;99.90;;;;;;5112907;28;20105;-66
2022/11/26 03:43:38;;;;;;;14.52;6.00;;;4.40;99.90;;;;;;5112868;28;20542;-66
2022/11/26 03:46:04;;;;;;;16.67;6.13;;;4.50;99.90;;;;;;5112830;28;20040;-66
2022/11/26 03:48:30;;;;;;;17.05;5.95;;;4.50;99.90;;;;;;5112591;28;20404;-67
2022/11/26 03:50:55;;;;;;;17.23;5.82;;;4.50;99.90;;;;;;5111388;28;20040;-67
2022/11/26 03:53:21;;;;;;;16.35;6.03;;;4.40;99.90;;;;;;5112424;28;20097;-67
2022/11/26 03:55:47;;;;;;;18.42;6.28;;;4.40;99.90;;;;;;5112884;28;20397;-66
2022/11/26 03:58:13;;;;;;;14.85;6.25;;;4.40;99.90;;;;;;5112998;28;20435;-67
2022/11/26 04:00:39;;;;;;;16.05;5.90;;;4.40;99.90;;;;;;5112900;28;20044;-67
2022/11/26 04:03:04;;;;;;;13.70;6.28;;;4.50;99.90;;;;;;5112706;28;20040;-67
2022/11/26 04:05:31;;;;;;;16.17;6.00;;;4.30;99.90;;;;;;5112495;28;20032;-66
2022/11/26 04:07:56;;;;;;;16.90;6.15;;;4.30;99.90;;;;;;5112652;28;20087;-66
2022/11/26 04:10:22;;;;;;;15.98;6.03;;;4.30;99.90;;;;;;5112906;28;20448;-66
2022/11/26 04:12:48;;;;;;;10.45;6.05;;;4.30;99.90;;;;;;5112521;28;20032;-67
2022/11/26 04:15:14;;;;;;;16.40;5.75;;;4.30;99.90;;;;;;5112794;28;20122;-67
2022/11/26 04:17:39;;;;;;;16.23;6.78;;;4.40;99.90;;;;;;5112670;28;20039;-66
2022/11/26 04:20:06;;;;;;;18.25;6.13;;;4.40;99.90;;;;;;5111325;28;20165;-67
2022/11/26 04:22:31;;;;;;;23.33;6.55;;;4.40;99.90;;;;;;5115416;28;20036;-67
2022/11/26 04:24:57;;;;;;;13.63;5.85;;;4.30;99.90;;;;;;5116485;28;20032;-66
2022/11/26 04:27:22;;;;;;;19.95;6.47;;;4.30;99.90;;;;;;5116493;28;20071;-67
2022/11/26 04:29:48;;;;;;;13.27;5.95;;;4.30;99.90;;;;;;5116365;28;20050;-67
2022/11/26 04:32:13;;;;;;;13.20;5.20;;;4.30;99.90;;;;;;5116460;28;20462;-67
2022/11/26 04:34:39;;;;;;;17.73;6.78;;;4.20;99.90;;;;;;5116087;28;20477;-67
2022/11/26 04:37:05;;;;;;;28.13;7.45;;;4.30;99.90;;;;;;5116418;28;20040;-67
2022/11/26 04:39:30;;;;;;;13.50;5.88;;;4.20;99.90;;;;;;5116735;28;20046;-67
2022/11/26 04:41:56;;;;;;;15.40;5.68;;;4.20;99.90;;;;;;5116702;28;20077;-67
2022/11/26 04:44:22;;;;;;;14.95;5.90;;;4.20;99.90;;;;;;5116215;28;20040;-67
2022/11/26 04:46:47;;;;;;;15.55;6.32;;;4.30;99.90;;;;;;5116272;28;20035;-67
2022/11/26 04:49:13;;;;;;;14.90;5.55;;;4.10;99.90;;;;;;5116344;28;20500;-67
2022/11/26 04:51:39;;;;;;;16.50;6.90;;;4.20;99.90;;;;;;5116622;28;20097;-67
2022/11/26 04:54:04;;;;;;;15.00;6.07;;;4.30;99.90;;;;;;5116516;28;20047;-67
2022/11/26 04:56:30;;;;;;;16.08;6.60;;;4.30;99.90;;;;;;5116736;28;20032;-67
2022/11/26 04:58:55;;;;;;;15.00;6.18;;;4.20;99.90;;;;;;5115204;28;20477;-67
2022/11/26 05:01:21;;;;;;;15.82;6.82;;;4.30;99.90;;;;;;5116493;28;20405;-67
2022/11/26 05:03:47;;;;;;;17.45;6.45;;;4.10;99.90;;;;;;5115329;28;20184;-67
2022/11/26 05:06:12;;;;;;;19.48;7.15;;;4.20;99.90;;;;;;5116169;28;20073;-67
2022/11/26 05:08:38;;;;;;;14.52;6.50;;;4.20;99.90;;;;;;5116484;28;20389;-67
2022/11/26 05:11:04;;;;;;;15.27;7.32;;;4.20;99.90;;;;;;5116792;28;20035;-68
2022/11/26 05:13:29;;;;;;;16.77;7.35;;;4.30;99.90;;;;;;5116130;28;20035;-68
2022/11/26 05:15:55;;;;;;;22.05;7.75;;;4.30;99.90;;;;;;5116508;28;20190;-67
2022/11/26 05:18:20;;;;;;;22.27;9.10;;;4.30;99.90;;;;;;5116441;28;20047;-67
2022/11/26 05:20:46;;;;;;;15.40;7.32;;;4.40;99.90;;;;;;5116123;28;20280;-67
2022/11/26 05:23:12;;;;;;;25.52;8.10;;;4.20;99.90;;;;;;5115827;28;20040;-67
2022/11/26 05:25:38;;;;;;;31.17;8.57;;;4.50;99.90;;;;;;5116325;28;20036;-67
2022/11/26 05:28:04;;;;;;;23.17;7.68;;;4.30;99.90;;;;;;5115964;28;20063;-67
2022/11/26 05:30:29;;;;;;;18.13;7.90;;;4.50;99.90;;;;;;5116081;28;20048;-67
2022/11/26 05:32:55;;;;;;;24.48;8.98;;;4.50;99.90;;;;;;5115999;28;20043;-67
2022/11/26 05:35:21;;;;;;;17.90;7.47;;;4.30;99.90;;;;;;5116202;28;20035;-67
2022/11/26 05:37:46;;;;;;;22.25;8.65;;;4.30;99.90;;;;;;5116044;28;20079;-68
2022/11/26 05:40:12;;;;;;;25.08;8.77;;;4.40;99.90;;;;;;5116030;28;20040;-67
2022/11/26 05:42:38;;;;;;;19.38;8.55;;;4.30;99.90;;;;;;5115586;28;20436;-67
2022/11/26 05:45:05;;;;;;;18.75;7.90;;;4.30;99.90;;;;;;5115700;28;20031;-67
2022/11/26 05:47:30;;;;;;;24.70;8.73;;;4.20;99.90;;;;;;5115763;28;20039;-67
2022/11/26 05:49:56;;;;;;;18.75;8.55;;;4.30;99.90;;;;;;5115939;28;20040;-67
2022/11/26 05:52:22;;;;;;;19.23;8.73;;;4.30;99.90;;;;;;5115500;28;20043;-67
2022/11/26 05:54:48;;;;;;;19.70;8.85;;;4.20;99.90;;;;;;5115542;28;20421;-67
2022/11/26 05:57:14;;;;;;;18.83;8.00;;;4.50;99.90;;;;;;5115916;28;20031;-67
2022/11/26 05:59:40;;;;;;;18.30;9.35;;;4.40;99.90;;;;;;5115754;28;20047;-67
2022/11/26 06:02:05;;;;;;;23.20;9.50;;;4.50;99.90;;;;;;5115584;28;20123;-67
2022/11/26 06:04:31;;;;;;;20.17;9.27;;;4.30;99.90;;;;;;5115274;28;20051;-67
2022/11/26 06:06:57;;;;;;;28.63;9.20;;;4.30;99.90;;;;;;5113913;28;20060;-67
2022/11/26 06:09:22;;;;;;;20.02;9.10;;;4.20;99.90;;;;;;5115101;28;20035;-67
2022/11/26 06:11:49;;;;;;;18.35;8.43;;;4.20;99.90;;;;;;5115416;28;20500;-67
2022/11/26 06:14:15;;;;;;;19.25;8.93;;;4.40;99.90;;;;;;5115436;28;20423;-67
2022/11/26 06:16:41;;;;;;;23.20;9.20;;;4.30;99.90;;;;;;5115085;28;20043;-67
2022/11/26 06:19:06;;;;;;;26.73;9.55;;;4.30;99.90;;;;;;5114941;28;20040;-67
2022/11/26 06:21:32;;;;;;;24.92;9.68;;;4.30;99.90;;;;;;5115404;28;20044;-67
2022/11/26 06:23:58;;;;;;;18.67;8.88;;;4.10;99.90;;;;;;5114724;28;20040;-67
2022/11/26 06:26:23;;;;;;;22.02;9.35;;;4.30;99.90;;;;;;5115020;28;20046;-67
2022/11/26 06:28:49;;;;;;;20.40;9.15;;;4.10;99.90;;;;;;5113495;28;20152;-67
2022/11/26 06:31:15;;;;;;;24.58;8.80;;;4.20;99.90;;;;;;5115032;28;20055;-67
2022/11/26 06:33:40;;;;;;;18.80;9.23;;;4.20;99.90;;;;;;5115154;28;20097;-67
2022/11/26 06:36:06;;;;;;;19.60;9.57;;;4.20;99.90;;;;;;5114946;28;20039;-67
2022/11/26 06:38:32;;;;;;;23.85;8.93;;;4.10;99.90;;;;;;5113743;28;20118;-67
2022/11/26 06:41:03;;;;;;;18.70;8.82;;;4.20;99.90;;;;;;5114747;28;20031;-67
2022/11/26 06:43:29;;;;;;;19.55;9.75;;;4.30;99.90;;;;;;5114237;28;20062;-67
2022/11/26 06:45:59;;;;;;;23.23;9.63;;;4.20;99.90;;;;;;5114610;28;20118;-67
2022/11/26 06:48:24;;;;;;;21.27;8.57;;;4.30;99.90;;;;;;5114859;28;20389;-67
2022/11/26 06:50:51;;;;;;;24.30;8.93;;;3.90;99.90;;;;;;5114365;28;20036;-65
2022/11/26 06:53:17;;;;;;;22.92;9.00;;;4.00;99.90;;;;;;5113706;28;20039;-64
2022/11/26 06:55:43;;;;;;;21.80;9.48;;;4.00;99.90;;;;;;5113233;28;20040;-64
2022/11/26 06:58:08;;;;;;;29.70;9.88;;;4.00;99.90;;;;;;5113666;28;20080;-64
2022/11/26 07:00:34;;;;;;;24.45;10.32;;;4.20;99.90;;;;;;5113880;28;20040;-64
2022/11/26 07:03:00;;;;;;;22.27;8.80;;;4.00;99.90;;;;;;5113537;28;20043;-64
2022/11/26 07:05:25;;;;;;;24.67;9.80;;;4.20;99.90;;;;;;5113934;28;20058;-64
2022/11/26 07:07:51;;;;;;;19.80;8.32;;;4.20;99.90;;;;;;5113531;28;20058;-64
2022/11/26 07:10:17;;;;;;;27.00;10.18;;;4.10;99.90;;;;;;5113639;28;20043;-64
2022/11/26 07:12:43;;;;;;;21.73;9.52;;;4.00;99.90;;;;;;5113257;28;20031;-64
2022/11/26 07:15:09;;;;;;;24.95;9.30;;;4.10;99.90;;;;;;5113009;28;20067;-64
2022/11/26 07:17:35;;;;;;;28.75;9.98;;;4.20;99.90;;;;;;5113058;28;20046;-64
2022/11/26 07:20:00;;;;;;;21.30;9.75;;;4.20;99.90;;;;;;5112990;28;20419;-64
2022/11/26 07:22:26;;;;;;;25.50;10.77;;;4.10;99.90;;;;;;5112893;28;20039;-64
2022/11/26 07:24:51;;;;;;;23.08;9.50;;;4.30;99.90;;;;;;5112990;28;20075;-64
2022/11/26 07:27:17;;;;;;;19.88;9.43;;;4.20;99.90;;;;;;5112984;28;20031;-64
2022/11/26 07:29:43;;;;;;;18.45;9.57;;;4.10;99.90;;;;;;5113015;28;20047;-64
2022/11/26 07:32:08;;;;;;;23.63;10.50;;;4.20;99.90;;;;;;5113091;28;20044;-64
2022/11/26 07:34:34;;;;;;;27.67;10.15;;;4.10;99.90;;;;;;5113325;28;20043;-64
2022/11/26 07:37:00;;;;;;;26.42;10.38;;;4.20;99.90;;;;;;5113088;28;20035;-64
2022/11/26 07:39:25;;;;;;;35.65;10.68;;;4.20;99.90;;;;;;5113132;28;20535;-64
2022/11/26 07:41:51;;;;;;;22.83;11.00;;;4.10;99.90;;;;;;5113145;28;20059;-64
2022/11/26 07:44:16;;;;;;;22.65;9.90;;;4.20;99.90;;;;;;5112894;28;20062;-64
2022/11/26 07:46:42;;;;;;;27.30;10.73;;;4.40;99.90;;;;;;5112842;28;20088;-63
2022/11/26 07:49:08;;;;;;;28.90;11.77;;;4.30;99.90;;;;;;5094562;28;20416;-64
2022/11/26 07:51:35;;;;;;;27.80;10.85;;;4.20;99.90;;;;;;5112671;28;20031;-64
2022/11/26 07:54:04;;;;;;;23.75;10.35;;;4.40;99.90;;;;;;5113114;28;20050;-64
2022/11/26 07:56:30;;;;;;;26.38;12.15;;;4.60;99.90;;;;;;5116115;28;20031;-64
2022/11/26 07:58:56;;;;;;;24.83;10.82;;;4.30;99.90;;;;;;5117041;28;20047;-64
2022/11/26 08:01:25;;;;;;;29.52;10.65;;;4.60;99.90;;;;;;5116986;28;20050;-64
2022/11/26 08:03:52;;;;;;;27.52;10.88;;;4.60;99.90;;;;;;5117057;28;20424;-64
2022/11/26 08:06:23;;;;;;;20.35;10.27;;;4.70;99.90;;;;;;5116833;28;20092;-64
2022/11/26 08:08:49;;;;;;;28.60;12.20;;;4.50;99.90;;;;;;5116861;28;20107;-63
2022/11/26 08:11:22;;;;;;;23.65;11.15;;;4.70;99.90;;;;;;5116860;28;20131;-64
2022/11/26 08:13:52;;;;;;;25.05;11.27;;;4.60;99.90;;;;;;5098608;28;20044;-64
2022/11/26 08:16:18;;;;;;;30.55;13.73;;;4.90;99.90;;;;;;5116599;28;20118;-64
2022/11/26 08:18:44;;;;;;;30.83;14.35;;;4.80;99.90;;;;;;5116867;28;20093;-64
2022/11/26 08:21:09;;;;;;;29.23;13.00;;;5.00;99.90;;;;;;5116818;28;20165;-63
2022/11/26 08:23:35;;;;;;;34.03;12.82;;;5.00;99.90;;;;;;5116628;28;20523;-64
2022/11/26 08:26:10;;;;;;;31.02;12.52;;;5.10;99.90;;;;;;5116418;28;20036;-64
2022/11/26 08:28:35;;;;;;;32.60;13.00;;;4.90;99.90;;;;;;5116369;28;20058;-64
2022/11/26 08:31:03;;;;;;;25.10;11.48;;;5.00;99.90;;;;;;5116760;28;20048;-63
2022/11/26 08:33:29;;;;;;;32.63;14.02;;;5.00;99.90;;;;;;5116560;28;20097;-64
2022/11/26 08:35:55;;;;;;;31.02;11.50;;;5.10;99.90;;;;;;5116430;28;20415;-64
2022/11/26 08:38:20;;;;;;;32.47;11.75;;;5.20;99.90;;;;;;5116139;28;20076;-63
2022/11/26 08:40:46;;;;;;;34.55;12.32;;;5.20;99.90;;;;;;5116036;28;20036;-63
2022/11/26 08:43:12;;;;;;;26.65;11.15;;;5.20;99.90;;;;;;5115708;28;20096;-64
2022/11/26 08:45:37;;;;;;;30.27;12.35;;;5.20;99.90;;;;;;5116303;28;20032;-64
2022/11/26 08:48:03;;;;;;;22.90;11.90;;;5.40;99.90;;;;;;5116155;28;20031;-63
2022/11/26 08:50:29;;;;;;;30.83;11.88;;;5.40;99.90;;;;;;5115795;28;20063;-63
2022/11/26 08:52:55;;;;;;;27.00;11.40;;;5.40;99.90;;;;;;5116002;28;20043;-64
2022/11/26 08:55:20;;;;;;;33.97;12.27;;;5.50;99.90;;;;;;5115898;28;20047;-63
2022/11/26 08:57:46;;;;;;;33.58;12.30;;;5.50;99.90;;;;;;5116021;28;20047;-63
2022/11/26 09:00:12;;;;;;;25.77;11.52;;;5.60;99.90;;;;;;5115681;28;20508;-64
2022/11/26 09:02:38;;;;;;;27.85;11.52;;;5.80;99.90;;;;;;5115524;28;20046;-63
2022/11/26 09:05:04;;;;;;;25.88;11.68;;;5.60;99.90;;;;;;5115784;28;20032;-64
2022/11/26 09:07:29;;;;;;;27.15;11.65;;;5.70;99.90;;;;;;5115042;28;20035;-63
2022/11/26 09:09:55;;;;;;;26.48;11.40;;;5.80;99.90;;;;;;5115526;28;20500;-64
2022/11/26 09:12:21;;;;;;;28.65;11.20;;;5.80;99.90;;;;;;5115475;28;20470;-63
2022/11/26 09:14:46;;;;;;;31.08;12.52;;;6.10;99.90;;;;;;5115335;28;20043;-64
2022/11/26 09:17:12;;;;;;;28.50;12.20;;;5.90;99.90;;;;;;5115365;28;20035;-64
2022/11/26 09:19:38;;;;;;;24.77;11.07;;;6.00;99.90;;;;;;5115535;28;20035;-63
2022/11/26 09:22:04;;;;;;;28.55;11.90;;;6.10;99.90;;;;;;5115352;28;20394;-64
2022/11/26 09:24:30;;;;;;;23.20;10.65;;;6.10;99.90;;;;;;5115122;28;20058;-63
2022/11/26 09:26:55;;;;;;;25.08;11.55;;;6.90;99.90;;;;;;5115253;28;20478;-63
2022/11/26 09:29:22;;;;;;;24.48;11.45;;;6.20;99.90;;;;;;5114882;28;20070;-63
2022/11/26 09:31:49;;;;;;;31.55;12.70;;;6.50;99.90;;;;;;5115185;28;20367;-63
2022/11/26 09:34:15;;;;;;;26.05;11.23;;;6.30;99.90;;;;;;5114938;28;20092;-64
2022/11/26 09:36:41;;;;;;;33.95;11.30;;;6.40;99.90;;;;;;5115028;28;20043;-63
2022/11/26 09:39:07;;;;;;;24.75;11.13;;;6.40;99.90;;;;;;5114869;28;20401;-63
2022/11/26 09:41:38;;;;;;;32.67;11.00;;;6.60;99.90;;;;;;5115144;28;20039;-63
2022/11/26 09:44:07;;;;;;;27.50;10.80;;;6.50;99.90;;;;;;5114776;28;20044;-63
2022/11/26 09:46:57;;;;;;;25.92;10.57;;;6.70;99.90;;;;;;5114713;28;20119;-63
2022/11/26 09:49:24;;;;;;;26.58;10.60;;;6.90;99.90;;;;;;5114678;28;20096;-63
2022/11/26 09:51:54;;;;;;;27.75;11.23;;;6.90;99.90;;;;;;5114553;28;20050;-63
2022/11/26 09:54:23;;;;;;;24.15;9.73;;;7.00;99.90;;;;;;5114874;28;20122;-63
2022/11/26 09:56:53;;;;;;;22.63;10.05;;;7.10;99.90;;;;;;5114720;28;20071;-63
2022/11/26 09:59:21;;;;;;;24.50;10.10;;;7.00;99.90;;;;;;5114627;28;20070;-63
2022/11/26 10:01:47;;;;;;;30.15;10.88;;;7.10;99.90;;;;;;5114399;28;20047;-63
2022/11/26 10:04:28;;;;;;;25.65;10.63;;;7.20;99.90;;;;;;5114379;28;20044;-63
2022/11/26 10:07:07;;;;;;;25.65;10.77;;;8.00;99.90;;;;;;5114613;28;20124;-63
2022/11/26 10:09:48;;;;;;;24.98;9.43;;;7.40;99.90;;;;;;5114651;28;20039;-63
2022/11/26 10:12:23;;;;;;;22.80;9.98;;;7.50;99.90;;;;;;5114258;28;20071;-63
2022/11/26 10:14:49;;;;;;;21.38;10.82;;;7.50;99.90;;;;;;5114312;28;20035;-63
2022/11/26 10:17:37;;;;;;;25.73;9.98;;;7.60;99.90;;;;;;5114501;28;20558;-63
2022/11/26 10:20:27;;;;;;;23.75;10.43;;;7.50;99.90;;;;;;5113279;28;20046;-63
2022/11/26 10:23:10;;;;;;;26.42;10.40;;;7.50;99.90;;;;;;5113898;28;20039;-64
2022/11/26 10:25:41;;;;;;;29.38;10.25;;;7.60;99.90;;;;;;5114150;28;20086;-63
2022/11/26 10:28:32;;;;;;;28.35;10.02;;;7.60;99.90;;;;;;5113830;28;20051;-63
2022/11/26 10:31:14;;;;;;;33.30;11.70;;;7.60;99.90;;;;;;5113893;28;20039;-63
2022/11/26 10:34:02;;;;;;;28.35;10.05;;;7.70;99.90;;;;;;5114115;28;20385;-63
2022/11/26 10:36:35;;;;;;;29.17;10.57;;;7.80;99.90;;;;;;5113574;28;20097;-63
2022/11/26 10:39:01;;;;;;;26.77;10.60;;;7.80;99.90;;;;;;5113641;28;20047;-63
2022/11/26 10:41:32;;;;;;;31.83;10.15;;;7.70;99.90;;;;;;5113848;28;20089;-63
2022/11/26 10:44:32;;;;;;;30.98;10.02;;;7.70;99.90;;;;;;5113487;28;20036;-63
2022/11/26 10:47:13;;;;;;;27.50;11.55;;;7.80;99.90;;;;;;5113652;28;20047;-63
2022/11/26 10:49:39;;;;;;;25.77;10.73;;;7.90;99.90;;;;;;5113423;28;20039;-63
2022/11/26 10:52:07;;;;;;;30.75;10.15;;;7.90;99.90;;;;;;5113475;28;20036;-63
2022/11/26 10:54:37;;;;;;;27.20;9.77;;;7.90;99.90;;;;;;5113706;28;20040;-63
2022/11/26 10:57:09;;;;;;;23.63;11.00;;;7.90;99.90;;;;;;5113236;28;20549;-63
2022/11/26 10:59:54;;;;;;;24.48;11.07;;;7.90;99.90;;;;;;5113708;28;20745;-63
2022/11/26 11:02:37;;;;;;;33.88;11.57;;;8.10;99.90;;;;;;5113467;28;20035;-63
2022/11/26 11:05:06;;;;;;;34.55;11.50;;;8.10;99.90;;;;;;5113340;28;20143;-63
2022/11/26 11:07:32;;;;;;;;;;;8.00;99.90;;;;;;5094769;28;20075;-63
2022/11/26 11:10:08;;;;;;;28.60;11.05;;;8.20;99.90;;;;;;5113294;28;20012;-63
2022/11/26 11:12:43;;;;;;;34.10;10.75;;;8.20;99.90;;;;;;5112999;28;20031;-63
2022/11/26 11:15:20;;;;;;;33.42;13.05;;;8.30;99.90;;;;;;5113216;28;20486;-62
2022/11/26 11:17:54;;;;;;;25.13;11.55;;;8.20;99.90;;;;;;5094836;28;20523;-62
2022/11/26 11:20:26;;;;;;;32.45;13.07;;;8.30;99.90;;;;;;5113060;28;20111;-63
2022/11/26 11:23:17;;;;;;;28.60;11.60;;;8.30;99.90;;;;;;5112860;28;20035;-63
2022/11/26 11:25:58;;;;;;;32.50;12.13;;;8.30;99.90;;;;;;5112272;28;20101;-63
2022/11/26 11:28:27;;;;;;;35.40;11.82;;;8.30;99.90;;;;;;5112735;28;20083;-63
2022/11/26 11:31:18;;;;;;;31.55;11.77;;;8.40;99.90;;;;;;5112725;28;20071;-63
2022/11/26 11:33:44;;;;;;;33.05;12.45;;;8.30;99.90;;;;;;5112493;28;20562;-63
2022/11/26 11:36:12;;;;;;;37.25;14.38;;;8.30;99.90;;;;;;5113051;28;20050;-63
2022/11/26 11:38:59;;;;;;;32.85;12.48;;;8.40;99.90;;;;;;5112665;28;20431;-63
2022/11/26 11:41:46;;;;;;;29.67;12.50;;;8.50;99.90;;;;;;5112768;28;20046;-63
2022/11/26 11:44:43;;;;;;;28.52;11.90;;;8.50;99.90;;;;;;5112502;28;20075;-63
2022/11/26 11:47:38;;;;;;;34.85;12.55;;;8.50;99.90;;;;;;5112530;28;20116;-63
2022/11/26 11:50:41;;;;;;;30.85;12.07;;;8.50;99.90;;;;;;5112627;28;20102;-63
2022/11/26 11:53:52;;;;;;;29.42;12.40;;;8.50;99.90;;;;;;5112633;28;20035;-63
2022/11/26 11:56:27;;;;;;;27.77;12.30;;;8.50;99.90;;;;;;5112567;28;20481;-63
2022/11/26 11:58:59;;;;;;;24.08;11.43;;;8.50;99.90;;;;;;5112412;28;20044;-62
2022/11/26 12:01:46;;;;;;;27.42;11.05;;;8.50;99.90;;;;;;5112640;28;20066;-62
2022/11/26 12:04:37;;;;;;;34.95;12.63;;;8.50;99.90;;;;;;5094229;28;20044;-63
2022/11/26 12:07:03;;;;;;;29.73;12.25;;;8.60;99.90;;;;;;5112366;28;20039;-62
2022/11/26 12:09:40;;;;;;;34.78;13.48;;;8.60;99.90;;;;;;5112223;28;20036;-63
2022/11/26 12:12:27;;;;;;;31.55;12.35;;;8.60;99.90;;;;;;5112575;28;20067;-62
2022/11/26 12:15:04;;;;;;;29.17;12.55;;;8.60;99.90;;;;;;5112154;28;20061;-62
2022/11/26 12:17:45;;;;;;;29.73;11.00;;;8.70;99.90;;;;;;5112303;28;20063;-62
2022/11/26 12:20:35;;;;;;;41.58;12.88;;;8.60;99.90;;;;;;5112490;28;20039;-62
2022/11/26 12:23:27;;;;;;;32.72;11.95;;;8.60;99.90;;;;;;5111575;28;20076;-63
2022/11/26 12:26:16;;;;;;;26.65;10.73;;;8.70;99.90;;;;;;5112054;28;20065;-63
2022/11/26 12:28:53;;;;;;;28.35;10.95;;;8.70;99.90;;;;;;5007803;28;20480;-62
2022/11/26 12:31:35;;;;;;;29.90;11.52;;;8.70;99.90;;;;;;5008522;28;20085;-62
2022/11/26 12:34:13;;;;;;;33.53;10.93;;;8.80;99.90;;;;;;5008920;28;20249;-62
2022/11/26 12:36:45;;;;;;;28.42;10.93;;;8.80;99.90;;;;;;5009345;28;20136;-62
2022/11/26 12:39:18;;;;;;;26.75;11.40;;;8.80;99.90;;;;;;5009470;28;20069;-62
2022/11/26 12:41:54;;;;;;;33.08;11.93;;;8.90;99.90;;;;;;5009757;28;20046;-62
2022/11/26 12:44:22;;;;;;;29.15;11.27;;;8.90;99.90;;;;;;5013290;28;20049;-62
2022/11/26 12:47:15;;;;;;;25.48;11.73;;;8.90;99.90;;;;;;5013319;28;20532;-62
2022/11/26 12:50:09;;;;;;;25.02;10.93;;;8.90;99.90;;;;;;4996484;28;20045;-62
2022/11/26 12:52:59;;;;;;;34.08;13.52;;;8.90;99.90;;;;;;4954784;29;20495;-63
2022/11/26 12:55:39;;;;;;;29.90;12.07;;;8.80;99.90;;;;;;4955013;29;20061;-62
2022/11/26 12:58:10;;;;;;;;;;;8.80;99.90;;;;;;4954566;29;20580;-62
2022/11/26 13:00:36;;;;;;;39.30;12.73;;;8.80;99.90;;;;;;4953172;29;20021;-62